PRIVATE WETTERSTATION BILLIGHEIM-ALLFELD                       ZURCK
Wetterdaten: Dienstag, 21.03.2017
Datum Zeit Temp. A. Temp. A. min Temp. A. max Feuchte A. Luftdruck Regen Wind Richtung Richtung Sonnenschein ET Solar Taupunkt Windchill Windben Empfang
21.03.2017 00:00 8,7 C 8,7 C 8,8 C 78 % 1009,9 hPa 0,0 l/m 8,0 km/h (2 Bft) S-SW 202 0 min 0,025 mm 0 W/m 5,1 C 7,5 C 17,7 km/h (3 Bft) 97 %
21.03.2017 00:10 8,7 C 8,7 C 8,8 C 78 % 1009,9 hPa 0,0 l/m 6,4 km/h (2 Bft) SW 225 0 min 0,000 mm 0 W/m 5,1 C 8,7 C 19,3 km/h (3 Bft) 97 %
21.03.2017 00:20 8,6 C 8,6 C 8,7 C 79 % 1010,0 hPa 0,0 l/m 8,0 km/h (2 Bft) SW 225 0 min 0,000 mm 0 W/m 5,2 C 7,4 C 19,3 km/h (3 Bft) 98 %
21.03.2017 00:30 8,6 C 8,6 C 8,6 C 79 % 1009,9 hPa 0,0 l/m 4,8 km/h (1 Bft) S-SW 202 0 min 0,000 mm 0 W/m 5,2 C 8,6 C 14,5 km/h (3 Bft) 97 %
21.03.2017 00:40 8,6 C 8,5 C 8,6 C 79 % 1009,9 hPa 0,0 l/m 4,8 km/h (1 Bft) SW 225 0 min 0,000 mm 0 W/m 5,2 C 8,6 C 19,3 km/h (3 Bft) 97 %
21.03.2017 00:50 8,6 C 8,6 C 8,6 C 79 % 1009,9 hPa 0,0 l/m 8,0 km/h (2 Bft) SW 225 0 min 0,000 mm 0 W/m 5,2 C 7,4 C 17,7 km/h (3 Bft) 88 %
21.03.2017 01:00 8,7 C 8,6 C 8,7 C 79 % 1009,9 hPa 0,0 l/m 9,7 km/h (2 Bft) SW 225 0 min 0,025 mm 0 W/m 5,3 C 6,3 C 20,9 km/h (4 Bft) 98 %
21.03.2017 01:10 8,8 C 8,7 C 8,8 C 78 % 1009,9 hPa 0,0 l/m 9,7 km/h (2 Bft) S-SW 202 0 min 0,000 mm 0 W/m 5,2 C 6,5 C 17,7 km/h (3 Bft) 98 %
21.03.2017 01:20 8,8 C 8,8 C 8,8 C 78 % 1009,8 hPa 0,0 l/m 9,7 km/h (2 Bft) SW 225 0 min 0,000 mm 0 W/m 5,2 C 6,5 C 22,5 km/h (4 Bft) 97 %
21.03.2017 01:30 8,9 C 8,8 C 8,9 C 77 % 1009,8 hPa 0,0 l/m 9,7 km/h (2 Bft) SW 225 0 min 0,000 mm 0 W/m 5,1 C 6,6 C 24,1 km/h (4 Bft) 98 %
21.03.2017 01:40 9,1 C 8,9 C 9,1 C 77 % 1009,8 hPa 0,0 l/m 8,0 km/h (2 Bft) SW 225 0 min 0,000 mm 0 W/m 5,3 C 7,9 C 19,3 km/h (3 Bft) 98 %
21.03.2017 01:50 9,2 C 9,1 C 9,2 C 76 % 1009,7 hPa 0,0 l/m 9,7 km/h (2 Bft) W-SW 247 0 min 0,000 mm 0 W/m 5,2 C 6,9 C 22,5 km/h (4 Bft) 98 %
21.03.2017 02:00 9,3 C 9,2 C 9,3 C 76 % 1009,7 hPa 0,0 l/m 9,7 km/h (2 Bft) W-SW 247 0 min 0,025 mm 0 W/m 5,3 C 7,0 C 22,5 km/h (4 Bft) 98 %
21.03.2017 02:10 9,3 C 9,3 C 9,3 C 76 % 1009,7 hPa 0,0 l/m 6,4 km/h (2 Bft) SW 225 0 min 0,000 mm 0 W/m 5,3 C 9,3 C 19,3 km/h (3 Bft) 97 %
21.03.2017 02:20 9,3 C 9,3 C 9,3 C 76 % 1009,7 hPa 0,0 l/m 9,7 km/h (2 Bft) SW 225 0 min 0,000 mm 0 W/m 5,3 C 7,0 C 20,9 km/h (4 Bft) 98 %
21.03.2017 02:30 9,3 C 9,3 C 9,3 C 76 % 1009,7 hPa 0,0 l/m 8,0 km/h (2 Bft) SW 225 0 min 0,000 mm 0 W/m 5,3 C 8,1 C 27,4 km/h (4 Bft) 98 %
21.03.2017 02:40 9,3 C 9,3 C 9,3 C 75 % 1009,7 hPa 0,0 l/m 9,7 km/h (2 Bft) W-SW 247 0 min 0,000 mm 0 W/m 5,1 C 7,0 C 24,1 km/h (4 Bft) 97 %
21.03.2017 02:50 9,4 C 9,3 C 9,4 C 75 % 1009,7 hPa 0,0 l/m 4,8 km/h (1 Bft) SW 225 0 min 0,000 mm 0 W/m 5,2 C 9,4 C 16,1 km/h (3 Bft) 98 %
21.03.2017 03:00 9,3 C 9,3 C 9,4 C 75 % 1009,5 hPa 0,0 l/m 8,0 km/h (2 Bft) W-SW 247 0 min 0,025 mm 0 W/m 5,1 C 8,1 C 24,1 km/h (4 Bft) 97 %
21.03.2017 03:10 9,3 C 9,3 C 9,4 C 75 % 1009,5 hPa 0,0 l/m 6,4 km/h (2 Bft) SW 225 0 min 0,000 mm 0 W/m 5,1 C 9,3 C 17,7 km/h (3 Bft) 97 %
21.03.2017 03:20 9,3 C 9,3 C 9,4 C 74 % 1009,4 hPa 0,0 l/m 6,4 km/h (2 Bft) SW 225 0 min 0,000 mm 0 W/m 4,9 C 9,3 C 19,3 km/h (3 Bft) 97 %
21.03.2017 03:30 9,3 C 9,3 C 9,3 C 74 % 1009,4 hPa 0,0 l/m 8,0 km/h (2 Bft) SW 225 0 min 0,000 mm 0 W/m 4,9 C 8,1 C 16,1 km/h (3 Bft) 97 %
21.03.2017 03:40 9,3 C 9,3 C 9,4 C 74 % 1009,4 hPa 0,0 l/m 6,4 km/h (2 Bft) SW 225 0 min 0,000 mm 0 W/m 4,9 C 9,3 C 19,3 km/h (3 Bft) 97 %
21.03.2017 03:50 9,3 C 9,3 C 9,4 C 74 % 1009,4 hPa 0,0 l/m 9,7 km/h (2 Bft) SW 225 0 min 0,000 mm 0 W/m 4,9 C 7,0 C 25,7 km/h (4 Bft) 87 %
21.03.2017 04:00 9,4 C 9,3 C 9,4 C 74 % 1009,4 hPa 0,0 l/m 9,7 km/h (2 Bft) SW 225 0 min 0,025 mm 0 W/m 5,0 C 7,1 C 24,1 km/h (4 Bft) 98 %
21.03.2017 04:10 9,4 C 9,4 C 9,4 C 74 % 1009,4 hPa 0,0 l/m 8,0 km/h (2 Bft) SW 225 0 min 0,000 mm 0 W/m 5,0 C 8,2 C 19,3 km/h (3 Bft) 98 %
21.03.2017 04:20 9,4 C 9,4 C 9,4 C 74 % 1009,5 hPa 0,0 l/m 6,4 km/h (2 Bft) SW 225 0 min 0,000 mm 0 W/m 5,0 C 9,4 C 22,5 km/h (4 Bft) 98 %
21.03.2017 04:30 9,3 C 9,3 C 9,4 C 74 % 1009,6 hPa 0,0 l/m 9,7 km/h (2 Bft) SW 225 0 min 0,000 mm 0 W/m 4,9 C 7,0 C 24,1 km/h (4 Bft) 98 %
21.03.2017 04:40 9,4 C 9,3 C 9,4 C 74 % 1009,6 hPa 0,0 l/m 9,7 km/h (2 Bft) SW 225 0 min 0,000 mm 0 W/m 5,0 C 7,1 C 19,3 km/h (3 Bft) 97 %
21.03.2017 04:50 9,3 C 9,3 C 9,4 C 75 % 1009,7 hPa 0,0 l/m 9,7 km/h (2 Bft) SW 225 0 min 0,000 mm 0 W/m 5,1 C 7,0 C 22,5 km/h (4 Bft) 98 %
21.03.2017 05:00 9,3 C 9,3 C 9,4 C 74 % 1009,7 hPa 0,0 l/m 6,4 km/h (2 Bft) S-SW 202 0 min 0,025 mm 0 W/m 4,9 C 9,3 C 19,3 km/h (3 Bft) 97 %
21.03.2017 05:10 9,3 C 9,3 C 9,3 C 75 % 1009,7 hPa 0,0 l/m 6,4 km/h (2 Bft) S-SW 202 0 min 0,000 mm 0 W/m 5,1 C 9,3 C 20,9 km/h (4 Bft) 97 %
21.03.2017 05:20 9,3 C 9,3 C 9,3 C 75 % 1009,5 hPa 0,0 l/m 1,6 km/h (1 Bft) SW 225 0 min 0,000 mm 0 W/m 5,1 C 9,3 C 14,5 km/h (3 Bft) 98 %
21.03.2017 05:30 9,2 C 9,2 C 9,3 C 75 % 1009,7 hPa 0,0 l/m 3,2 km/h (1 Bft) S-SW 202 0 min 0,000 mm 0 W/m 5,0 C 9,2 C 17,7 km/h (3 Bft) 97 %
21.03.2017 05:40 9,2 C 9,2 C 9,2 C 76 % 1009,6 hPa 0,0 l/m 1,6 km/h (1 Bft) SW 225 0 min 0,000 mm 0 W/m 5,2 C 9,2 C 11,3 km/h (2 Bft) 98 %
21.03.2017 05:50 9,1 C 9,1 C 9,2 C 76 % 1009,6 hPa 0,0 l/m 1,6 km/h (1 Bft) S-SW 202 0 min 0,000 mm 0 W/m 5,1 C 9,1 C 9,7 km/h (2 Bft) 98 %
21.03.2017 06:00 9,0 C 9,0 C 9,1 C 77 % 1009,5 hPa 0,0 l/m 0,0 km/h (0 Bft) S 180 0 min 0,025 mm 0 W/m 5,2 C 9,0 C 1,6 km/h (1 Bft) 97 %
21.03.2017 06:10 8,9 C 8,9 C 9,0 C 77 % 1009,5 hPa 0,0 l/m 1,6 km/h (1 Bft) SO 135 0 min 0,000 mm 0 W/m 5,1 C 8,9 C 6,4 km/h (2 Bft) 97 %
21.03.2017 06:20 8,8 C 8,8 C 8,9 C 77 % 1009,5 hPa 0,0 l/m 0,0 km/h (0 Bft) S 180 0 min 0,000 mm 0 W/m 5,0 C 8,8 C 3,2 km/h (1 Bft) 98 %
21.03.2017 06:30 8,7 C 8,7 C 8,8 C 78 % 1009,6 hPa 0,0 l/m 0,0 km/h (0 Bft) S-SO 157 0 min 0,000 mm 0 W/m 5,1 C 8,7 C 6,4 km/h (2 Bft) 97 %
21.03.2017 06:40 8,7 C 8,7 C 8,7 C 78 % 1009,7 hPa 0,0 l/m 1,6 km/h (1 Bft) S-SO 157 0 min 0,000 mm 0 W/m 5,1 C 8,7 C 9,7 km/h (2 Bft) 97 %
21.03.2017 06:50 8,7 C 8,7 C 8,7 C 78 % 1009,6 hPa 0,0 l/m 1,6 km/h (1 Bft) S-SO 157 0 min 0,000 mm 12 W/m 5,1 C 8,7 C 8,0 km/h (2 Bft) 98 %
21.03.2017 07:00 8,7 C 8,7 C 8,7 C 78 % 1009,6 hPa 0,0 l/m 3,2 km/h (1 Bft) S 180 0 min 0,000 mm 25 W/m 5,1 C 8,7 C 16,1 km/h (3 Bft) 96 %
21.03.2017 07:10 8,7 C 8,7 C 8,7 C 79 % 1009,7 hPa 0,0 l/m 1,6 km/h (1 Bft) S-SW 202 0 min 0,000 mm 26 W/m 5,3 C 8,7 C 11,3 km/h (2 Bft) 98 %
21.03.2017 07:20 8,6 C 8,6 C 8,7 C 79 % 1009,7 hPa 0,0 l/m 3,2 km/h (1 Bft) S-SW 202 0 min 0,000 mm 32 W/m 5,2 C 8,6 C 11,3 km/h (2 Bft) 98 %
21.03.2017 07:30 8,7 C 8,6 C 8,7 C 79 % 1009,8 hPa 0,0 l/m 1,6 km/h (1 Bft) S-SW 202 0 min 0,000 mm 44 W/m 5,3 C 8,7 C 11,3 km/h (2 Bft) 99 %
21.03.2017 07:40 8,7 C 8,7 C 8,7 C 80 % 1009,8 hPa 0,0 l/m 3,2 km/h (1 Bft) S 180 0 min 0,000 mm 44 W/m 5,4 C 8,7 C 11,3 km/h (2 Bft) 100 %
21.03.2017 07:50 8,8 C 8,7 C 8,8 C 79 % 1009,8 hPa 0,0 l/m 1,6 km/h (1 Bft) S 180 0 min 0,000 mm 76 W/m 5,4 C 8,8 C 11,3 km/h (2 Bft) 100 %
21.03.2017 08:00 8,8 C 8,8 C 8,9 C 79 % 1009,9 hPa 0,0 l/m 3,2 km/h (1 Bft) S 180 0 min 0,025 mm 70 W/m 5,4 C 8,8 C 11,3 km/h (2 Bft) 100 %
21.03.2017 08:10 8,9 C 8,9 C 8,9 C 78 % 1009,8 hPa 0,0 l/m 3,2 km/h (1 Bft) S 180 0 min 0,000 mm 67 W/m 5,3 C 8,9 C 17,7 km/h (3 Bft) 100 %
21.03.2017 08:20 9,0 C 8,9 C 9,1 C 78 % 1009,8 hPa 0,0 l/m 3,2 km/h (1 Bft) S 180 0 min 0,000 mm 98 W/m 5,4 C 9,0 C 14,5 km/h (3 Bft) 100 %
21.03.2017 08:30 9,2 C 9,0 C 9,2 C 78 % 1009,9 hPa 0,0 l/m 0,0 km/h (0 Bft) S 180 0 min 0,000 mm 97 W/m 5,6 C 9,2 C 8,0 km/h (2 Bft) 100 %
21.03.2017 08:40 9,2 C 9,2 C 9,2 C 78 % 1009,9 hPa 0,0 l/m 1,6 km/h (1 Bft) S 180 0 min 0,000 mm 109 W/m 5,6 C 9,2 C 9,7 km/h (2 Bft) 100 %
21.03.2017 08:50 9,4 C 9,3 C 9,4 C 79 % 1009,9 hPa 0,0 l/m 3,2 km/h (1 Bft) S 180 0 min 0,000 mm 113 W/m 5,9 C 9,4 C 11,3 km/h (2 Bft) 100 %
21.03.2017 09:00 9,5 C 9,4 C 9,5 C 79 % 1010,0 hPa 0,0 l/m 3,2 km/h (1 Bft) S-SW 202 0 min 0,051 mm 104 W/m 6,0 C 9,5 C 11,3 km/h (2 Bft) 100 %
21.03.2017 09:10 9,6 C 9,5 C 9,6 C 77 % 1010,0 hPa 0,0 l/m 4,8 km/h (1 Bft) SW 225 0 min 0,000 mm 127 W/m 5,8 C 9,6 C 16,1 km/h (3 Bft) 100 %
21.03.2017 09:20 9,8 C 9,6 C 9,8 C 77 % 1009,9 hPa 0,0 l/m 3,2 km/h (1 Bft) SW 225 0 min 0,000 mm 93 W/m 6,0 C 9,8 C 16,1 km/h (3 Bft) 100 %
21.03.2017 09:30 9,9 C 9,8 C 9,9 C 76 % 1009,9 hPa 0,0 l/m 3,2 km/h (1 Bft) SW 225 0 min 0,000 mm 113 W/m 5,9 C 9,9 C 14,5 km/h (3 Bft) 100 %
21.03.2017 09:40 10,0 C 9,9 C 10,0 C 75 % 1009,9 hPa 0,0 l/m 8,0 km/h (2 Bft) SW 225 0 min 0,000 mm 118 W/m 5,8 C 8,9 C 19,3 km/h (3 Bft) 100 %
21.03.2017 09:50 10,1 C 10,0 C 10,1 C 75 % 1010,0 hPa 0,0 l/m 8,0 km/h (2 Bft) SW 225 0 min 0,000 mm 142 W/m 5,9 C 9,0 C 22,5 km/h (4 Bft) 90 %
21.03.2017 10:00 10,2 C 10,1 C 10,2 C 76 % 1010,1 hPa 0,0 l/m 6,4 km/h (2 Bft) SW 225 0 min 0,076 mm 142 W/m 6,2 C 10,2 C 22,5 km/h (4 Bft) 100 %
21.03.2017 10:10 10,3 C 10,2 C 10,3 C 75 % 1010,1 hPa 0,0 l/m 6,4 km/h (2 Bft) W-SW 247 0 min 0,000 mm 137 W/m 6,1 C 10,3 C 20,9 km/h (4 Bft) 100 %
21.03.2017 10:20 10,3 C 10,3 C 10,3 C 75 % 1010,1 hPa 0,0 l/m 17,7 km/h (3 Bft) SW 225 10 min 0,000 mm 156 W/m 6,1 C 4,5 C 40,2 km/h (6 Bft) 100 %
21.03.2017 10:30 10,2 C 10,2 C 10,3 C 76 % 1010,0 hPa 0,0 l/m 16,1 km/h (3 Bft) SW 225 0 min 0,000 mm 144 W/m 6,2 C 4,9 C 32,2 km/h (5 Bft) 100 %
21.03.2017 10:40 10,2 C 10,2 C 10,2 C 76 % 1010,1 hPa 0,0 l/m 14,5 km/h (3 Bft) W-SW 247 0 min 0,000 mm 149 W/m 6,2 C 5,6 C 29,0 km/h (5 Bft) 99 %
21.03.2017 10:50 10,3 C 10,2 C 10,3 C 76 % 1010,0 hPa 0,0 l/m 12,9 km/h (3 Bft) SW 225 10 min 0,000 mm 158 W/m 6,3 C 6,4 C 29,0 km/h (5 Bft) 100 %
21.03.2017 11:00 10,3 C 10,3 C 10,4 C 75 % 1010,1 hPa 0,0 l/m 11,3 km/h (2 Bft) SW 225 10 min 0,102 mm 169 W/m 6,1 C 7,2 C 30,6 km/h (5 Bft) 100 %
21.03.2017 11:10 10,4 C 10,3 C 10,4 C 76 % 1010,0 hPa 0,0 l/m 9,7 km/h (2 Bft) SW 225 0 min 0,000 mm 132 W/m 6,4 C 8,2 C 20,9 km/h (4 Bft) 100 %
21.03.2017 11:20 10,4 C 10,4 C 10,4 C 76 % 1010,1 hPa 0,0 l/m 4,8 km/h (1 Bft) SW 225 0 min 0,000 mm 118 W/m 6,4 C 10,4 C 17,7 km/h (3 Bft) 100 %
21.03.2017 11:30 10,4 C 10,4 C 10,5 C 75 % 1010,0 hPa 0,0 l/m 9,7 km/h (2 Bft) SW 225 10 min 0,000 mm 160 W/m 6,2 C 8,2 C 25,7 km/h (4 Bft) 100 %
21.03.2017 11:40 10,5 C 10,4 C 10,5 C 75 % 1009,9 hPa 0,0 l/m 9,7 km/h (2 Bft) SW 225 10 min 0,000 mm 171 W/m 6,3 C 8,3 C 20,9 km/h (4 Bft) 100 %
21.03.2017 11:50 10,6 C 10,5 C 10,6 C 76 % 1009,8 hPa 0,0 l/m 11,3 km/h (2 Bft) SW 225 0 min 0,000 mm 139 W/m 6,5 C 7,6 C 20,9 km/h (4 Bft) 100 %
21.03.2017 12:00 10,6 C 10,6 C 10,6 C 76 % 1009,9 hPa 0,0 l/m 6,4 km/h (2 Bft) SW 225 0 min 0,076 mm 116 W/m 6,5 C 10,6 C 17,7 km/h (3 Bft) 100 %
21.03.2017 12:10 10,6 C 10,6 C 10,6 C 77 % 1009,9 hPa 0,0 l/m 4,8 km/h (1 Bft) S-SW 202 0 min 0,000 mm 88 W/m 6,7 C 10,6 C 16,1 km/h (3 Bft) 100 %
21.03.2017 12:20 10,6 C 10,5 C 10,6 C 79 % 1009,8 hPa 0,0 l/m 3,2 km/h (1 Bft) W-SW 247 0 min 0,000 mm 100 W/m 7,1 C 10,6 C 14,5 km/h (3 Bft) 100 %
21.03.2017 12:30 10,5 C 10,5 C 10,6 C 78 % 1009,9 hPa 0,0 l/m 6,4 km/h (2 Bft) W 270 0 min 0,000 mm 135 W/m 6,8 C 10,5 C 17,7 km/h (3 Bft) 100 %
21.03.2017 12:40 10,4 C 10,4 C 10,5 C 79 % 1009,9 hPa 0,0 l/m 6,4 km/h (2 Bft) W-NW 292 0 min 0,000 mm 132 W/m 6,9 C 10,4 C 19,3 km/h (3 Bft) 100 %
21.03.2017 12:50 10,3 C 10,3 C 10,4 C 81 % 1010,0 hPa 0,0 l/m 8,0 km/h (2 Bft) W-NW 292 0 min 0,000 mm 127 W/m 7,2 C 9,2 C 20,9 km/h (4 Bft) 100 %
21.03.2017 13:00 10,2 C 10,2 C 10,3 C 83 % 1009,9 hPa 0,0 l/m 4,8 km/h (1 Bft) W 270 0 min 0,051 mm 97 W/m 7,4 C 10,2 C 16,1 km/h (3 Bft) 100 %
21.03.2017 13:10 10,1 C 10,1 C 10,2 C 84 % 1009,9 hPa 0,0 l/m 6,4 km/h (2 Bft) W-SW 247 10 min 0,000 mm 169 W/m 7,5 C 10,1 C 16,1 km/h (3 Bft) 100 %
21.03.2017 13:20 10,0 C 10,0 C 10,1 C 85 % 1009,8 hPa 0,0 l/m 8,0 km/h (2 Bft) W-SW 247 10 min 0,000 mm 186 W/m 7,6 C 8,9 C 17,7 km/h (3 Bft) 100 %
21.03.2017 13:30 10,1 C 10,0 C 10,1 C 86 % 1009,8 hPa 0,0 l/m 6,4 km/h (2 Bft) W 270 10 min 0,000 mm 213 W/m 7,9 C 10,1 C 20,9 km/h (4 Bft) 100 %
21.03.2017 13:40 10,2 C 10,1 C 10,2 C 85 % 1009,7 hPa 0,0 l/m 6,4 km/h (2 Bft) W-SW 247 10 min 0,000 mm 190 W/m 7,8 C 10,2 C 17,7 km/h (3 Bft) 100 %
21.03.2017 13:50 10,0 C 10,0 C 10,2 C 86 % 1009,8 hPa 0,0 l/m 9,7 km/h (2 Bft) SW 225 0 min 0,000 mm 144 W/m 7,8 C 7,8 C 24,1 km/h (4 Bft) 100 %
21.03.2017 14:00 9,8 C 9,8 C 10,0 C 87 % 1009,6 hPa 0,0 l/m 11,3 km/h (2 Bft) W-SW 247 0 min 0,076 mm 141 W/m 7,7 C 6,6 C 24,1 km/h (4 Bft) 100 %
21.03.2017 14:10 9,7 C 9,7 C 9,8 C 88 % 1009,5 hPa 0,0 l/m 6,4 km/h (2 Bft) W-SW 247 10 min 0,000 mm 169 W/m 7,8 C 9,7 C 22,5 km/h (4 Bft) 100 %
21.03.2017 14:20 9,7 C 9,7 C 9,7 C 88 % 1009,4 hPa 0,0 l/m 9,7 km/h (2 Bft) W-SW 247 10 min 0,000 mm 192 W/m 7,8 C 7,4 C 24,1 km/h (4 Bft) 100 %
21.03.2017 14:30 9,8 C 9,7 C 9,8 C 88 % 1009,3 hPa 0,0 l/m 8,0 km/h (2 Bft) W-SW 247 10 min 0,000 mm 186 W/m 7,9 C 8,6 C 19,3 km/h (3 Bft) 100 %
21.03.2017 14:40 9,8 C 9,8 C 9,8 C 88 % 1009,2 hPa 0,0 l/m 6,4 km/h (2 Bft) SW 225 0 min 0,000 mm 139 W/m 7,9 C 9,8 C 17,7 km/h (3 Bft) 100 %
21.03.2017 14:50 9,8 C 9,8 C 9,8 C 87 % 1009,3 hPa 0,0 l/m 9,7 km/h (2 Bft) SW 225 0 min 0,000 mm 146 W/m 7,7 C 7,6 C 24,1 km/h (4 Bft) 100 %
21.03.2017 15:00 9,8 C 9,8 C 9,8 C 88 % 1009,3 hPa 0,0 l/m 8,0 km/h (2 Bft) S-SW 202 0 min 0,076 mm 109 W/m 7,9 C 8,6 C 19,3 km/h (3 Bft) 100 %
21.03.2017 15:10 9,7 C 9,7 C 9,8 C 88 % 1009,2 hPa 0,0 l/m 9,7 km/h (2 Bft) S-SW 202 0 min 0,000 mm 128 W/m 7,8 C 7,4 C 19,3 km/h (3 Bft) 100 %
21.03.2017 15:20 9,7 C 9,7 C 9,8 C 88 % 1009,3 hPa 0,0 l/m 9,7 km/h (2 Bft) S-SW 202 0 min 0,000 mm 100 W/m 7,8 C 7,4 C 17,7 km/h (3 Bft) 100 %
21.03.2017 15:30 9,6 C 9,6 C 9,7 C 88 % 1009,4 hPa 0,0 l/m 6,4 km/h (2 Bft) SW 225 0 min 0,000 mm 62 W/m 7,7 C 9,6 C 14,5 km/h (3 Bft) 100 %
21.03.2017 15:40 9,5 C 9,5 C 9,6 C 89 % 1009,4 hPa 0,4 l/m 4,8 km/h (1 Bft) W-SW 247 0 min 0,000 mm 47 W/m 7,8 C 9,5 C 14,5 km/h (3 Bft) 100 %
21.03.2017 15:50 9,2 C 9,2 C 9,5 C 89 % 1009,4 hPa 0,0 l/m 4,8 km/h (1 Bft) W-SW 247 0 min 0,000 mm 49 W/m 7,5 C 9,2 C 16,1 km/h (3 Bft) 100 %
21.03.2017 16:00 8,9 C 8,9 C 9,2 C 89 % 1009,5 hPa 0,2 l/m 4,8 km/h (1 Bft) W 270 0 min 0,025 mm 42 W/m 7,2 C 8,9 C 19,3 km/h (3 Bft) 100 %
21.03.2017 16:10 8,6 C 8,6 C 8,9 C 90 % 1009,6 hPa 0,2 l/m 3,2 km/h (1 Bft) W 270 0 min 0,000 mm 42 W/m 7,1 C 8,6 C 11,3 km/h (2 Bft) 100 %
21.03.2017 16:20 8,5 C 8,5 C 8,6 C 90 % 1009,6 hPa 0,0 l/m 1,6 km/h (1 Bft) W 270 0 min 0,000 mm 49 W/m 7,0 C 8,5 C 8,0 km/h (2 Bft) 100 %
21.03.2017 16:30 8,4 C 8,4 C 8,5 C 91 % 1009,7 hPa 0,0 l/m 1,6 km/h (1 Bft) W 270 0 min 0,000 mm 46 W/m 7,0 C 8,4 C 6,4 km/h (2 Bft) 100 %
21.03.2017 16:40 8,3 C 8,3 C 8,4 C 91 % 1009,8 hPa 0,4 l/m 3,2 km/h (1 Bft) W 270 0 min 0,000 mm 39 W/m 6,9 C 8,3 C 17,7 km/h (3 Bft) 100 %
21.03.2017 16:50 8,2 C 8,2 C 8,3 C 91 % 1009,9 hPa 0,0 l/m 1,6 km/h (1 Bft) W-SW 247 0 min 0,000 mm 37 W/m 6,8 C 8,2 C 8,0 km/h (2 Bft) 100 %
21.03.2017 17:00 8,2 C 8,2 C 8,2 C 91 % 1010,0 hPa 0,0 l/m 3,2 km/h (1 Bft) W-SW 247 0 min 0,025 mm 40 W/m 6,8 C 8,2 C 14,5 km/h (3 Bft) 100 %
21.03.2017 17:10 8,1 C 8,1 C 8,2 C 91 % 1010,1 hPa 0,0 l/m 6,4 km/h (2 Bft) W 270 0 min 0,000 mm 47 W/m 6,7 C 8,1 C 20,9 km/h (4 Bft) 100 %
21.03.2017 17:20 8,1 C 8,1 C 8,1 C 91 % 1010,2 hPa 0,2 l/m 4,8 km/h (1 Bft) W-NW 292 0 min 0,000 mm 53 W/m 6,7 C 8,1 C 16,1 km/h (3 Bft) 100 %
21.03.2017 17:30 7,9 C 7,9 C 8,1 C 90 % 1010,3 hPa 0,0 l/m 8,0 km/h (2 Bft) W-NW 292 0 min 0,000 mm 42 W/m 6,4 C 6,6 C 22,5 km/h (4 Bft) 99 %
21.03.2017 17:40 7,8 C 7,8 C 8,1 C 91 % 1010,5 hPa 0,2 l/m 2,3 km/h (1 Bft) W-NW 299 0 min 0,000 mm 26 W/m 6,4 C 7,8 C 8,0 km/h (2 Bft) 100 %
21.03.2017 17:50 7,7 C 7,7 C 7,8 C 91 % 1010,6 hPa 0,0 l/m 1,2 km/h (1 Bft) NW 308 0 min 0,000 mm 26 W/m 6,3 C 7,7 C 9,7 km/h (2 Bft) 100 %
21.03.2017 18:00 7,7 C 7,7 C 7,8 C 91 % 1010,8 hPa 0,0 l/m 1,8 km/h (1 Bft) NW 309 0 min 0,004 mm 18 W/m 6,3 C 7,7 C 9,7 km/h (2 Bft) 100 %
21.03.2017 18:10 7,6 C 7,6 C 7,7 C 91 % 1011,1 hPa 0,0 l/m 0,9 km/h (0 Bft) NW 305 0 min 0,000 mm 7 W/m 6,2 C 7,6 C 6,4 km/h (2 Bft) 100 %
21.03.2017 18:20 7,4 C 7,4 C 7,6 C 91 % 1011,1 hPa 0,2 l/m 5,2 km/h (1 Bft) NW 306 0 min 0,000 mm 0 W/m 6,0 C 7,4 C 16,1 km/h (3 Bft) 100 %
21.03.2017 18:30 7,3 C 7,2 C 7,4 C 91 % 1011,3 hPa 0,2 l/m 6,0 km/h (2 Bft) NW 304 0 min 0,000 mm 0 W/m 5,9 C 7,3 C 11,3 km/h (2 Bft) 100 %
21.03.2017 18:40 7,1 C 7,1 C 7,3 C 91 % 1011,4 hPa 0,0 l/m 5,6 km/h (1 Bft) NW 320 0 min 0,000 mm 0 W/m 5,7 C 7,1 C 16,1 km/h (3 Bft) 100 %
21.03.2017 18:50 6,9 C 6,9 C 7,1 C 91 % 1011,5 hPa 0,0 l/m 6,3 km/h (2 Bft) N-NW 330 0 min 0,000 mm 0 W/m 5,5 C 6,9 C 17,7 km/h (3 Bft) 100 %
21.03.2017 19:00 6,7 C 6,7 C 6,9 C 91 % 1011,6 hPa 0,0 l/m 3,8 km/h (1 Bft) N-NW 327 0 min 0,000 mm 0 W/m 5,3 C 6,7 C 14,5 km/h (3 Bft) 100 %
21.03.2017 19:10 6,5 C 6,5 C 6,7 C 91 % 1011,8 hPa 0,2 l/m 3,0 km/h (1 Bft) N 350 0 min 0,000 mm 0 W/m 5,1 C 6,5 C 12,9 km/h (3 Bft) 100 %
21.03.2017 19:20 6,3 C 6,3 C 6,5 C 91 % 1012,0 hPa 0,0 l/m 2,7 km/h (1 Bft) N 355 0 min 0,000 mm 0 W/m 4,9 C 6,3 C 14,5 km/h (3 Bft) 100 %
21.03.2017 19:30 6,1 C 6,1 C 6,3 C 91 % 1012,2 hPa 0,2 l/m 2,4 km/h (1 Bft) N-NW 340 0 min 0,000 mm 0 W/m 4,7 C 6,1 C 14,5 km/h (3 Bft) 100 %
21.03.2017 19:40 5,7 C 5,7 C 6,1 C 91 % 1012,6 hPa 0,0 l/m 5,8 km/h (2 Bft) N 355 0 min 0,000 mm 0 W/m 4,3 C 5,7 C 20,9 km/h (4 Bft) 100 %
21.03.2017 19:50 5,4 C 5,4 C 5,7 C 91 % 1012,6 hPa 0,2 l/m 2,2 km/h (1 Bft) N 5 0 min 0,000 mm 0 W/m 4,1 C 5,4 C 12,9 km/h (3 Bft) 100 %
21.03.2017 20:00 5,1 C 5,1 C 5,4 C 91 % 1012,9 hPa 0,0 l/m 1,9 km/h (1 Bft) N 355 0 min 0,000 mm 0 W/m 3,8 C 5,1 C 11,3 km/h (2 Bft) 100 %
21.03.2017 20:10 4,9 C 4,9 C 5,1 C 91 % 1012,9 hPa 0,2 l/m 0,6 km/h (0 Bft) N-NW 345 0 min 0,000 mm 0 W/m 3,6 C 4,9 C 9,7 km/h (2 Bft) 100 %
21.03.2017 20:20 4,7 C 4,7 C 4,9 C 91 % 1013,0 hPa 0,0 l/m 0,4 km/h (0 Bft) N 5 0 min 0,000 mm 0 W/m 3,4 C 4,7 C 8,0 km/h (2 Bft) 100 %
21.03.2017 20:30 4,7 C 4,7 C 4,8 C 91 % 1013,0 hPa 0,0 l/m 0,0 km/h (0 Bft) N 350 0 min 0,000 mm 0 W/m 3,4 C 4,7 C 0,0 km/h (0 Bft) 100 %
21.03.2017 20:40 4,6 C 4,6 C 4,7 C 91 % 1013,2 hPa 0,2 l/m 0,0 km/h (0 Bft) N 350 0 min 0,000 mm 0 W/m 3,3 C 4,6 C 0,0 km/h (0 Bft) 100 %
21.03.2017 20:50 4,6 C 4,6 C 4,6 C 91 % 1013,2 hPa 0,0 l/m 0,0 km/h (0 Bft) N 350 0 min 0,000 mm 0 W/m 3,3 C 4,6 C 0,0 km/h (0 Bft) 100 %
21.03.2017 21:00 4,6 C 4,6 C 4,6 C 91 % 1013,3 hPa 0,2 l/m 0,0 km/h (0 Bft) N 350 0 min 0,000 mm 0 W/m 3,3 C 4,6 C 0,0 km/h (0 Bft) 100 %
21.03.2017 21:10 4,6 C 4,6 C 4,6 C 91 % 1013,4 hPa 0,2 l/m 0,0 km/h (0 Bft) N 0 0 min 0,000 mm 0 W/m 3,3 C 4,6 C 0,0 km/h (0 Bft) 100 %
21.03.2017 21:20 4,6 C 4,5 C 4,6 C 91 % 1013,5 hPa 0,2 l/m 0,0 km/h (0 Bft) N 0 0 min 0,000 mm 0 W/m 3,3 C 4,6 C 0,0 km/h (0 Bft) 90 %
21.03.2017 21:30 4,5 C 4,5 C 4,6 C 91 % 1013,6 hPa 0,0 l/m 0,0 km/h (0 Bft) N 0 0 min 0,000 mm 0 W/m 3,2 C 4,5 C 0,0 km/h (0 Bft) 99 %
21.03.2017 21:40 4,5 C 4,4 C 4,5 C 91 % 1013,6 hPa 0,4 l/m 0,0 km/h (0 Bft) N 360 0 min 0,000 mm 0 W/m 3,2 C 4,5 C 1,6 km/h (1 Bft) 100 %
21.03.2017 21:50 4,4 C 4,4 C 4,5 C 91 % 1013,7 hPa 0,0 l/m 0,0 km/h (0 Bft) N 0 0 min 0,000 mm 0 W/m 3,1 C 4,4 C 0,0 km/h (0 Bft) 100 %
21.03.2017 22:00 4,4 C 4,4 C 4,4 C 91 % 1013,9 hPa 0,2 l/m 0,0 km/h (0 Bft) N 0 0 min 0,000 mm 0 W/m 3,1 C 4,4 C 0,0 km/h (0 Bft) 100 %
21.03.2017 22:10 4,4 C 4,4 C 4,4 C 91 % 1013,9 hPa 0,2 l/m 0,0 km/h (0 Bft) N 0 0 min 0,000 mm 0 W/m 3,1 C 4,4 C 0,0 km/h (0 Bft) 100 %
21.03.2017 22:20 4,4 C 4,4 C 4,4 C 91 % 1014,0 hPa 0,2 l/m 1,6 km/h (1 Bft) N-NW 337 0 min 0,000 mm 0 W/m 3,1 C 4,4 C 11,3 km/h (2 Bft) 100 %
21.03.2017 22:30 4,2 C 4,2 C 4,4 C 91 % 1014,1 hPa 0,0 l/m 3,2 km/h (1 Bft) N-NW 337 0 min 0,000 mm 0 W/m 2,9 C 4,2 C 14,5 km/h (3 Bft) 100 %
21.03.2017 22:40 4,1 C 4,1 C 4,2 C 91 % 1014,1 hPa 0,2 l/m 3,2 km/h (1 Bft) N-NW 337 0 min 0,000 mm 0 W/m 2,8 C 4,1 C 14,5 km/h (3 Bft) 100 %
21.03.2017 22:50 3,9 C 3,9 C 4,1 C 91 % 1014,1 hPa 0,0 l/m 0,0 km/h (0 Bft) N 360 0 min 0,000 mm 0 W/m 2,6 C 3,9 C 11,3 km/h (2 Bft) 100 %
21.03.2017 23:00 3,8 C 3,8 C 3,9 C 91 % 1014,1 hPa 0,2 l/m 1,6 km/h (1 Bft) N 360 0 min 0,000 mm 0 W/m 2,5 C 3,8 C 9,7 km/h (2 Bft) 100 %
21.03.2017 23:10 3,8 C 3,8 C 3,8 C 91 % 1014,2 hPa 0,0 l/m 0,0 km/h (0 Bft) NW 315 0 min 0,000 mm 0 W/m 2,5 C 3,8 C 8,0 km/h (2 Bft) 100 %
21.03.2017 23:20 3,7 C 3,7 C 3,8 C 91 % 1014,3 hPa 0,0 l/m 0,0 km/h (0 Bft) N-NO 22 0 min 0,000 mm 0 W/m 2,4 C 3,7 C 6,4 km/h (2 Bft) 100 %
21.03.2017 23:30 3,6 C 3,6 C 3,7 C 91 % 1014,2 hPa 0,2 l/m 0,0 km/h (0 Bft) N 0 0 min 0,000 mm 0 W/m 2,3 C 3,6 C 0,0 km/h (0 Bft) 100 %
21.03.2017 23:40 3,6 C 3,6 C 3,7 C 91 % 1014,2 hPa 0,0 l/m 0,0 km/h (0 Bft) N-NO 22 0 min 0,000 mm 0 W/m 2,3 C 3,6 C 4,8 km/h (1 Bft) 100 %
21.03.2017 23:50 3,5 C 3,5 C 3,6 C 91 % 1014,2 hPa 0,0 l/m 0,0 km/h (0 Bft) N-NO 22 0 min 0,000 mm 0 W/m 2,2 C 3,5 C 4,8 km/h (1 Bft) 100 %
_ Min-Zeit 23:50 23:50 23:50 03:20 14:40 - 06:00 - - - - - 23:50 23:50 20:30 03:50
Minimum _ 3,5 C 3,5 C 3,6 C 74 % 1009,2 hPa - 0,0 km/h (0 Bft) - - - - - 2,2 C 3,5 C 0,0 km/h (0 Bft) 87 %
_ Max-Zeit 11:50 12:00 11:50 16:30 23:20 15:40 10:20 - - 10:20 11:00 13:30 14:30 12:00 10:20 07:40
Maximum _ 10,6 C 10,6 C 10,6 C 91 % 1014,3 hPa 0,4 l/m 17,7 km/h
SW (3 Bft)
- - 10 min 0,102 mm 213 W/m 7,9 C 10,6 C 40,2 km/h
W-SW (6 Bft)
100 %
Durchschnitt _ 8,3 C 8,3 C 8,4 C 83 % 1010,6 hPa #5,2 l/m 5,1 km/h (1 Bft) SW - #2:00 h #0,762 mm 101 W/m 5,5 C 7,6 C 15,3 km/h (3 Bft) 99 %
PRIVATE WETTERSTATION BILLIGHEIM-ALLFELD - www.neckar-odenwald-wetter.de - Holger Sonntag